Accueil
METAR-TAF:

METAR-TAF

Aéroports :

Kolding, Danemark

Vamdrup

latitude: 55-26N, longitude: 009-20E, altitude: 44 m

Observation

Le bulletin a été fait il y a 11 minutes, à 19:50 UTC
Vent 5 kt de est
Température -3°C
Humidité 68%
Pression 1036 hPa

METAR: EKVD 241950Z AUTO 09005KT //// ///////// M03/M08 Q1036

Heure: 21:01 (20:01 UTC)

Prévision

Le bulletin a été fait il y a 8 heures et 13 minutes, à 11:48 UTC
Prévision valable du 24 à 12 UTC au 24 à 16 UTC
Vent 12 kt de est
Visibilité 10 km ou plus
Quelques nuages à une hauteur de 3000 ft

TAF: EKVD 241148Z 2412/2416 09012KT 9999 FEW030

Observations et prévisions météorologiques de plus de 4000 aéroports (messages METAR et TAF).

Les stations disponibles sont représentées par des disques jaunes et rouges sur la carte.

Passer la souris dessus pour voir le nom de la station.

Cliquer dessus pour voir les observations et prévisions météorologiques.

Pour changer de carte: cliquez sur les boutons verts avec une croix noire pour zoomer, sur le bouton vert avec un tiret pour effectuer un zoom arrière, ou sur les flèches vertes pour les cartes adjacentes.


METAR-TAF: